sensor_id;sensor_type;location;lat;lon;timestamp;P1;durP1;ratioP1;P2;durP2;ratioP2
1026;SDS011;502;48.746;9.214;2023-04-01T00:00:47;1.50;;;0.60;;
1026;SDS011;502;48.746;9.214;2023-04-01T00:03:15;1.73;;;0.80;;
1026;SDS011;502;48.746;9.214;2023-04-01T00:05:42;2.03;;;0.70;;
1026;SDS011;502;48.746;9.214;2023-04-01T00:08:11;2.40;;;0.60;;
1026;SDS011;502;48.746;9.214;2023-04-01T00:10:41;2.93;;;0.60;;
1026;SDS011;502;48.746;9.214;2023-04-01T00:13:08;1.10;;;0.60;;
1026;SDS011;502;48.746;9.214;2023-04-01T00:15:38;1.40;;;0.70;;
1026;SDS011;502;48.746;9.214;2023-04-01T00:18:05;0.87;;;0.50;;
1026;SDS011;502;48.746;9.214;2023-04-01T00:20:33;1.10;;;0.53;;
1026;SDS011;502;48.746;9.214;2023-04-01T00:23:01;2.37;;;0.67;;
1026;SDS011;502;48.746;9.214;2023-04-01T00:25:28;2.23;;;1.00;;
1026;SDS011;502;48.746;9.214;2023-04-01T00:27:55;1.77;;;0.97;;
1026;SDS011;502;48.746;9.214;2023-04-01T00:30:24;3.13;;;0.70;;
1026;SDS011;502;48.746;9.214;2023-04-01T00:32:51;1.67;;;0.83;;
1026;SDS011;502;48.746;9.214;2023-04-01T00:35:18;1.20;;;0.70;;
1026;SDS011;502;48.746;9.214;2023-04-01T00:37:48;1.73;;;0.80;;
1026;SDS011;502;48.746;9.214;2023-04-01T00:40:23;3.00;;;0.80;;
1026;SDS011;502;48.746;9.214;2023-04-01T00:42:52;10.60;;;0.90;;
1026;SDS011;502;48.746;9.214;2023-04-01T00:45:23;1.20;;;0.60;;
1026;SDS011;502;48.746;9.214;2023-04-01T00:47:53;1.70;;;0.80;;
1026;SDS011;502;48.746;9.214;2023-04-01T00:50:20;2.20;;;1.03;;
1026;SDS011;502;48.746;9.214;2023-04-01T00:52:49;1.70;;;0.87;;
1026;SDS011;502;48.746;9.214;2023-04-01T00:55:16;5.73;;;0.73;;
1026;SDS011;502;48.746;9.214;2023-04-01T00:57:45;2.13;;;0.80;;
1026;SDS011;502;48.746;9.214;2023-04-01T01:00:12;1.80;;;0.60;;
1026;SDS011;502;48.746;9.214;2023-04-01T01:02:40;1.57;;;0.97;;
1026;SDS011;502;48.746;9.214;2023-04-01T01:05:08;1.33;;;0.60;;
1026;SDS011;502;48.746;9.214;2023-04-01T01:07:36;2.50;;;0.80;;
1026;SDS011;502;48.746;9.214;2023-04-01T01:10:09;1.87;;;0.90;;
1026;SDS011;502;48.746;9.214;2023-04-01T01:12:40;3.20;;;0.70;;
1026;SDS011;502;48.746;9.214;2023-04-01T01:15:12;3.07;;;0.73;;
1026;SDS011;502;48.746;9.214;2023-04-01T01:17:44;1.33;;;0.67;;
1026;SDS011;502;48.746;9.214;2023-04-01T01:23:23;1.90;;;0.90;;
1026;SDS011;502;48.746;9.214;2023-04-01T01:26:18;0.80;;;0.40;;
1026;SDS011;502;48.746;9.214;2023-04-01T01:28:57;3.07;;;0.80;;
1026;SDS011;502;48.746;9.214;2023-04-01T01:31:33;0.90;;;0.57;;
1026;SDS011;502;48.746;9.214;2023-04-01T01:34:03;1.20;;;0.70;;
1026;SDS011;502;48.746;9.214;2023-04-01T01:36:37;1.67;;;0.73;;
1026;SDS011;502;48.746;9.214;2023-04-01T01:39:08;1.00;;;0.40;;
1026;SDS011;502;48.746;9.214;2023-04-01T01:41:36;1.40;;;0.60;;
1026;SDS011;502;48.746;9.214;2023-04-01T01:44:03;0.90;;;0.50;;
1026;SDS011;502;48.746;9.214;2023-04-01T01:46:32;2.57;;;0.60;;
1026;SDS011;502;48.746;9.214;2023-04-01T01:48:59;1.10;;;0.53;;
1026;SDS011;502;48.746;9.214;2023-04-01T01:51:27;2.17;;;0.70;;
1026;SDS011;502;48.746;9.214;2023-04-01T01:53:55;1.53;;;0.50;;
1026;SDS011;502;48.746;9.214;2023-04-01T01:56:23;1.33;;;0.50;;
1026;SDS011;502;48.746;9.214;2023-04-01T01:58:52;3.50;;;0.67;;
1026;SDS011;502;48.746;9.214;2023-04-01T02:01:22;1.57;;;0.50;;
1026;SDS011;502;48.746;9.214;2023-04-01T02:03:52;1.47;;;0.50;;
1026;SDS011;502;48.746;9.214;2023-04-01T02:06:20;1.20;;;0.50;;
1026;SDS011;502;48.746;9.214;2023-04-01T02:08:49;2.20;;;0.70;;
1026;SDS011;502;48.746;9.214;2023-04-01T02:11:21;2.40;;;0.50;;
1026;SDS011;502;48.746;9.214;2023-04-01T02:13:52;2.60;;;0.77;;
1026;SDS011;502;48.746;9.214;2023-04-01T02:16:22;2.30;;;0.83;;
1026;SDS011;502;48.746;9.214;2023-04-01T02:18:53;2.10;;;0.90;;
1026;SDS011;502;48.746;9.214;2023-04-01T02:21:22;1.50;;;0.60;;
1026;SDS011;502;48.746;9.214;2023-04-01T02:23:51;1.00;;;0.47;;
1026;SDS011;502;48.746;9.214;2023-04-01T02:26:20;1.87;;;0.60;;
1026;SDS011;502;48.746;9.214;2023-04-01T02:28:47;2.70;;;0.60;;
1026;SDS011;502;48.746;9.214;2023-04-01T02:31:15;1.50;;;0.53;;
1026;SDS011;502;48.746;9.214;2023-04-01T02:33:42;1.43;;;0.60;;
1026;SDS011;502;48.746;9.214;2023-04-01T02:36:10;0.93;;;0.47;;
1026;SDS011;502;48.746;9.214;2023-04-01T02:38:37;0.90;;;0.50;;
1026;SDS011;502;48.746;9.214;2023-04-01T02:41:04;1.10;;;0.40;;
1026;SDS011;502;48.746;9.214;2023-04-01T02:43:33;1.13;;;0.70;;
1026;SDS011;502;48.746;9.214;2023-04-01T02:46:00;0.83;;;0.40;;
1026;SDS011;502;48.746;9.214;2023-04-01T02:48:27;0.70;;;0.30;;
1026;SDS011;502;48.746;9.214;2023-04-01T02:50:54;1.53;;;0.43;;
1026;SDS011;502;48.746;9.214;2023-04-01T02:53:21;0.80;;;0.40;;
1026;SDS011;502;48.746;9.214;2023-04-01T02:55:48;0.80;;;0.30;;
1026;SDS011;502;48.746;9.214;2023-04-01T02:58:17;0.87;;;0.40;;
1026;SDS011;502;48.746;9.214;2023-04-01T03:00:45;0.87;;;0.37;;
1026;SDS011;502;48.746;9.214;2023-04-01T03:03:12;1.00;;;0.43;;
1026;SDS011;502;48.746;9.214;2023-04-01T03:05:39;0.80;;;0.30;;
1026;SDS011;502;48.746;9.214;2023-04-01T03:08:06;1.27;;;0.30;;
1026;SDS011;502;48.746;9.214;2023-04-01T03:10:32;0.77;;;0.30;;
1026;SDS011;502;48.746;9.214;2023-04-01T03:12:59;0.83;;;0.40;;
1026;SDS011;502;48.746;9.214;2023-04-01T03:15:26;0.90;;;0.30;;
1026;SDS011;502;48.746;9.214;2023-04-01T03:17:54;0.70;;;0.30;;
1026;SDS011;502;48.746;9.214;2023-04-01T03:20:21;1.60;;;0.40;;
1026;SDS011;502;48.746;9.214;2023-04-01T03:22:48;0.70;;;0.30;;
1026;SDS011;502;48.746;9.214;2023-04-01T03:25:15;1.00;;;0.40;;
1026;SDS011;502;48.746;9.214;2023-04-01T03:27:42;1.13;;;0.37;;
1026;SDS011;502;48.746;9.214;2023-04-01T03:30:09;1.60;;;0.47;;
1026;SDS011;502;48.746;9.214;2023-04-01T03:32:44;0.70;;;0.20;;
1026;SDS011;502;48.746;9.214;2023-04-01T03:35:12;1.10;;;0.33;;
1026;SDS011;502;48.746;9.214;2023-04-01T03:37:40;1.00;;;0.30;;
1026;SDS011;502;48.746;9.214;2023-04-01T03:40:07;0.90;;;0.40;;
1026;SDS011;502;48.746;9.214;2023-04-01T03:42:34;0.70;;;0.30;;
1026;SDS011;502;48.746;9.214;2023-04-01T03:45:01;0.93;;;0.33;;
1026;SDS011;502;48.746;9.214;2023-04-01T03:47:29;1.33;;;0.50;;
1026;SDS011;502;48.746;9.214;2023-04-01T03:49:56;2.37;;;0.30;;
1026;SDS011;502;48.746;9.214;2023-04-01T03:52:24;1.10;;;0.30;;
1026;SDS011;502;48.746;9.214;2023-04-01T03:54:50;0.70;;;0.30;;
1026;SDS011;502;48.746;9.214;2023-04-01T03:57:17;0.70;;;0.33;;
1026;SDS011;502;48.746;9.214;2023-04-01T03:59:44;0.70;;;0.30;;
1026;SDS011;502;48.746;9.214;2023-04-01T04:02:11;1.07;;;0.30;;
1026;SDS011;502;48.746;9.214;2023-04-01T04:04:37;1.07;;;0.30;;
1026;SDS011;502;48.746;9.214;2023-04-01T04:07:05;1.73;;;0.37;;
1026;SDS011;502;48.746;9.214;2023-04-01T04:09:50;0.70;;;0.30;;
1026;SDS011;502;48.746;9.214;2023-04-01T04:12:17;1.50;;;0.37;;
1026;SDS011;502;48.746;9.214;2023-04-01T04:14:43;0.90;;;0.40;;
1026;SDS011;502;48.746;9.214;2023-04-01T04:17:10;0.77;;;0.30;;
1026;SDS011;502;48.746;9.214;2023-04-01T04:19:41;0.70;;;0.30;;
1026;SDS011;502;48.746;9.214;2023-04-01T04:22:08;1.17;;;0.40;;
1026;SDS011;502;48.746;9.214;2023-04-01T04:24:35;1.70;;;0.40;;
1026;SDS011;502;48.746;9.214;2023-04-01T04:27:12;0.70;;;0.33;;
1026;SDS011;502;48.746;9.214;2023-04-01T04:29:52;1.30;;;0.40;;
1026;SDS011;502;48.746;9.214;2023-04-01T04:32:18;0.90;;;0.40;;
1026;SDS011;502;48.746;9.214;2023-04-01T04:34:45;0.90;;;0.40;;
1026;SDS011;502;48.746;9.214;2023-04-01T04:37:12;0.90;;;0.40;;
1026;SDS011;502;48.746;9.214;2023-04-01T04:39:38;0.70;;;0.30;;
1026;SDS011;502;48.746;9.214;2023-04-01T04:42:05;1.10;;;0.50;;
1026;SDS011;502;48.746;9.214;2023-04-01T04:44:33;0.97;;;0.40;;
1026;SDS011;502;48.746;9.214;2023-04-01T04:47:00;0.90;;;0.37;;
1026;SDS011;502;48.746;9.214;2023-04-01T04:49:27;0.90;;;0.50;;
1026;SDS011;502;48.746;9.214;2023-04-01T04:51:54;3.23;;;0.40;;
1026;SDS011;502;48.746;9.214;2023-04-01T04:54:23;0.70;;;0.30;;
1026;SDS011;502;48.746;9.214;2023-04-01T04:56:54;1.50;;;0.40;;
1026;SDS011;502;48.746;9.214;2023-04-01T04:59:22;0.70;;;0.30;;
1026;SDS011;502;48.746;9.214;2023-04-01T05:02:05;0.90;;;0.50;;
1026;SDS011;502;48.746;9.214;2023-04-01T05:04:34;1.60;;;0.73;;
1026;SDS011;502;48.746;9.214;2023-04-01T05:07:02;0.80;;;0.47;;
1026;SDS011;502;48.746;9.214;2023-04-01T05:09:29;1.20;;;0.70;;
1026;SDS011;502;48.746;9.214;2023-04-01T05:11:57;0.70;;;0.40;;
1026;SDS011;502;48.746;9.214;2023-04-01T05:14:25;4.20;;;0.40;;
1026;SDS011;502;48.746;9.214;2023-04-01T05:16:59;1.17;;;0.70;;
1026;SDS011;502;48.746;9.214;2023-04-01T05:19:27;0.80;;;0.30;;
1026;SDS011;502;48.746;9.214;2023-04-01T05:21:54;2.33;;;0.53;;
1026;SDS011;502;48.746;9.214;2023-04-01T05:24:21;2.67;;;0.80;;
1026;SDS011;502;48.746;9.214;2023-04-01T05:26:48;1.10;;;0.43;;
1026;SDS011;502;48.746;9.214;2023-04-01T05:29:15;1.07;;;0.40;;
1026;SDS011;502;48.746;9.214;2023-04-01T05:31:44;1.23;;;0.40;;
1026;SDS011;502;48.746;9.214;2023-04-01T05:34:10;1.90;;;0.80;;
1026;SDS011;502;48.746;9.214;2023-04-01T05:36:38;1.90;;;0.50;;
1026;SDS011;502;48.746;9.214;2023-04-01T05:39:06;1.40;;;0.60;;
1026;SDS011;502;48.746;9.214;2023-04-01T05:41:34;2.00;;;0.60;;
1026;SDS011;502;48.746;9.214;2023-04-01T05:44:01;0.90;;;0.50;;
1026;SDS011;502;48.746;9.214;2023-04-01T05:46:54;3.07;;;0.67;;
1026;SDS011;502;48.746;9.214;2023-04-01T05:49:24;1.87;;;0.43;;
1026;SDS011;502;48.746;9.214;2023-04-01T05:51:52;1.80;;;0.63;;
1026;SDS011;502;48.746;9.214;2023-04-01T05:54:19;1.10;;;0.50;;
1026;SDS011;502;48.746;9.214;2023-04-01T05:56:46;0.83;;;0.50;;
1026;SDS011;502;48.746;9.214;2023-04-01T05:59:12;1.40;;;0.50;;
1026;SDS011;502;48.746;9.214;2023-04-01T06:01:40;1.70;;;0.60;;
1026;SDS011;502;48.746;9.214;2023-04-01T06:04:09;1.83;;;0.50;;
1026;SDS011;502;48.746;9.214;2023-04-01T06:06:37;2.10;;;1.10;;
1026;SDS011;502;48.746;9.214;2023-04-01T06:09:12;1.20;;;0.50;;
1026;SDS011;502;48.746;9.214;2023-04-01T06:11:50;1.23;;;0.40;;
1026;SDS011;502;48.746;9.214;2023-04-01T06:14:26;1.47;;;0.50;;
1026;SDS011;502;48.746;9.214;2023-04-01T06:17:03;1.17;;;0.40;;
1026;SDS011;502;48.746;9.214;2023-04-01T06:19:36;1.30;;;0.60;;
1026;SDS011;502;48.746;9.214;2023-04-01T06:22:19;1.30;;;0.40;;
1026;SDS011;502;48.746;9.214;2023-04-01T06:28:42;1.10;;;0.80;;
1026;SDS011;502;48.746;9.214;2023-04-01T06:31:19;0.97;;;0.60;;
1026;SDS011;502;48.746;9.214;2023-04-01T06:34:00;1.90;;;0.93;;
1026;SDS011;502;48.746;9.214;2023-04-01T06:36:43;2.77;;;0.77;;
1026;SDS011;502;48.746;9.214;2023-04-01T06:39:35;1.87;;;0.60;;
1026;SDS011;502;48.746;9.214;2023-04-01T06:42:20;1.83;;;0.50;;
1026;SDS011;502;48.746;9.214;2023-04-01T06:45:22;1.10;;;0.50;;
1026;SDS011;502;48.746;9.214;2023-04-01T06:48:34;1.73;;;0.70;;
1026;SDS011;502;48.746;9.214;2023-04-01T06:51:39;1.10;;;0.60;;
1026;SDS011;502;48.746;9.214;2023-04-01T06:54:30;1.10;;;0.70;;
1026;SDS011;502;48.746;9.214;2023-04-01T06:57:02;1.13;;;0.50;;
1026;SDS011;502;48.746;9.214;2023-04-01T06:59:32;2.27;;;0.70;;
1026;SDS011;502;48.746;9.214;2023-04-01T07:02:02;1.70;;;0.53;;
1026;SDS011;502;48.746;9.214;2023-04-01T07:04:33;0.90;;;0.40;;
1026;SDS011;502;48.746;9.214;2023-04-01T07:07:04;1.20;;;0.60;;
1026;SDS011;502;48.746;9.214;2023-04-01T07:09:43;1.03;;;0.60;;
1026;SDS011;502;48.746;9.214;2023-04-01T07:12:33;2.03;;;0.90;;
1026;SDS011;502;48.746;9.214;2023-04-01T07:15:25;3.03;;;0.73;;
1026;SDS011;502;48.746;9.214;2023-04-01T07:17:57;1.93;;;0.63;;
1026;SDS011;502;48.746;9.214;2023-04-01T07:20:27;1.57;;;0.43;;
1026;SDS011;502;48.746;9.214;2023-04-01T07:22:57;0.80;;;0.43;;
1026;SDS011;502;48.746;9.214;2023-04-01T07:25:33;2.97;;;0.60;;
1026;SDS011;502;48.746;9.214;2023-04-01T07:28:31;1.17;;;0.50;;
1026;SDS011;502;48.746;9.214;2023-04-01T07:31:20;3.13;;;0.60;;
1026;SDS011;502;48.746;9.214;2023-04-01T07:33:57;1.60;;;0.73;;
1026;SDS011;502;48.746;9.214;2023-04-01T07:36:30;1.57;;;0.50;;
1026;SDS011;502;48.746;9.214;2023-04-01T07:39:03;1.53;;;0.60;;
1026;SDS011;502;48.746;9.214;2023-04-01T07:41:51;1.93;;;0.70;;
1026;SDS011;502;48.746;9.214;2023-04-01T07:44:23;1.10;;;0.40;;
1026;SDS011;502;48.746;9.214;2023-04-01T07:46:54;0.80;;;0.30;;
1026;SDS011;502;48.746;9.214;2023-04-01T07:49:29;4.40;;;0.57;;
1026;SDS011;502;48.746;9.214;2023-04-01T07:51:59;1.47;;;0.30;;
1026;SDS011;502;48.746;9.214;2023-04-01T07:54:31;0.87;;;0.47;;
1026;SDS011;502;48.746;9.214;2023-04-01T07:57:02;4.30;;;0.70;;
1026;SDS011;502;48.746;9.214;2023-04-01T07:59:53;1.20;;;0.50;;
1026;SDS011;502;48.746;9.214;2023-04-01T08:02:43;1.73;;;0.60;;
1026;SDS011;502;48.746;9.214;2023-04-01T08:05:22;1.30;;;0.57;;
1026;SDS011;502;48.746;9.214;2023-04-01T08:07:55;1.67;;;0.50;;
1026;SDS011;502;48.746;9.214;2023-04-01T08:10:48;1.00;;;0.40;;
1026;SDS011;502;48.746;9.214;2023-04-01T08:13:37;1.10;;;0.50;;
1026;SDS011;502;48.746;9.214;2023-04-01T08:16:26;0.80;;;0.37;;
1026;SDS011;502;48.746;9.214;2023-04-01T08:19:03;1.00;;;0.47;;
1026;SDS011;502;48.746;9.214;2023-04-01T08:21:41;1.90;;;0.40;;
1026;SDS011;502;48.746;9.214;2023-04-01T08:24:11;1.00;;;0.30;;
1026;SDS011;502;48.746;9.214;2023-04-01T08:26:45;1.57;;;0.70;;
1026;SDS011;502;48.746;9.214;2023-04-01T08:29:13;1.20;;;0.70;;
1026;SDS011;502;48.746;9.214;2023-04-01T08:31:45;3.67;;;0.57;;
1026;SDS011;502;48.746;9.214;2023-04-01T08:34:16;2.03;;;0.73;;
1026;SDS011;502;48.746;9.214;2023-04-01T08:36:48;1.43;;;0.50;;
1026;SDS011;502;48.746;9.214;2023-04-01T08:39:20;1.00;;;0.30;;
1026;SDS011;502;48.746;9.214;2023-04-01T08:41:57;1.77;;;0.67;;
1026;SDS011;502;48.746;9.214;2023-04-01T08:48:01;1.90;;;0.67;;
1026;SDS011;502;48.746;9.214;2023-04-01T08:50:40;3.33;;;0.97;;
1026;SDS011;502;48.746;9.214;2023-04-01T08:53:31;3.33;;;0.70;;
1026;SDS011;502;48.746;9.214;2023-04-01T08:56:06;1.57;;;0.80;;
1026;SDS011;502;48.746;9.214;2023-04-01T08:58:48;0.83;;;0.40;;
1026;SDS011;502;48.746;9.214;2023-04-01T09:01:51;1.87;;;0.60;;
1026;SDS011;502;48.746;9.214;2023-04-01T09:05:00;1.10;;;0.53;;
1026;SDS011;502;48.746;9.214;2023-04-01T09:07:54;0.90;;;0.50;;
1026;SDS011;502;48.746;9.214;2023-04-01T09:14:00;0.90;;;0.50;;
1026;SDS011;502;48.746;9.214;2023-04-01T09:16:58;1.00;;;0.40;;
1026;SDS011;502;48.746;9.214;2023-04-01T09:19:55;0.80;;;0.40;;
1026;SDS011;502;48.746;9.214;2023-04-01T09:22:42;1.03;;;0.57;;
1026;SDS011;502;48.746;9.214;2023-04-01T09:25:22;1.00;;;0.53;;
1026;SDS011;502;48.746;9.214;2023-04-01T09:27:56;1.17;;;0.60;;
1026;SDS011;502;48.746;9.214;2023-04-01T09:30:36;0.90;;;0.47;;
1026;SDS011;502;48.746;9.214;2023-04-01T09:36:43;0.80;;;0.40;;
1026;SDS011;502;48.746;9.214;2023-04-01T09:42:15;1.10;;;0.40;;
1026;SDS011;502;48.746;9.214;2023-04-01T09:45:06;0.87;;;0.50;;
1026;SDS011;502;48.746;9.214;2023-04-01T09:47:41;1.20;;;0.50;;
1026;SDS011;502;48.746;9.214;2023-04-01T09:53:07;1.90;;;0.87;;
1026;SDS011;502;48.746;9.214;2023-04-01T09:58:46;0.90;;;0.40;;
1026;SDS011;502;48.746;9.214;2023-04-01T10:01:46;0.90;;;0.30;;
1026;SDS011;502;48.746;9.214;2023-04-01T10:07:45;1.17;;;0.40;;
1026;SDS011;502;48.746;9.214;2023-04-01T10:10:30;0.70;;;0.30;;
1026;SDS011;502;48.746;9.214;2023-04-01T10:13:26;0.83;;;0.20;;
1026;SDS011;502;48.746;9.214;2023-04-01T10:19:22;0.73;;;0.27;;
1026;SDS011;502;48.746;9.214;2023-04-01T10:22:17;0.80;;;0.40;;
1026;SDS011;502;48.746;9.214;2023-04-01T10:24:59;0.80;;;0.20;;
1026;SDS011;502;48.746;9.214;2023-04-01T10:31:29;0.70;;;0.30;;
1026;SDS011;502;48.746;9.214;2023-04-01T10:34:16;1.23;;;0.40;;
1026;SDS011;502;48.746;9.214;2023-04-01T10:37:11;0.70;;;0.30;;
1026;SDS011;502;48.746;9.214;2023-04-01T10:39:58;0.80;;;0.30;;
1026;SDS011;502;48.746;9.214;2023-04-01T10:43:31;0.80;;;0.40;;
1026;SDS011;502;48.746;9.214;2023-04-01T10:46:28;0.70;;;0.20;;
1026;SDS011;502;48.746;9.214;2023-04-01T10:49:31;0.80;;;0.40;;
1026;SDS011;502;48.746;9.214;2023-04-01T11:02:50;0.80;;;0.20;;
1026;SDS011;502;48.746;9.214;2023-04-01T11:06:15;0.80;;;0.30;;
1026;SDS011;502;48.746;9.214;2023-04-01T11:21:47;0.90;;;0.30;;
1026;SDS011;502;48.746;9.214;2023-04-01T11:24:45;0.63;;;0.20;;
1026;SDS011;502;48.746;9.214;2023-04-01T11:27:54;1.00;;;0.20;;
1026;SDS011;502;48.746;9.214;2023-04-01T11:30:33;0.70;;;0.20;;
1026;SDS011;502;48.746;9.214;2023-04-01T11:33:12;1.20;;;0.40;;
1026;SDS011;502;48.746;9.214;2023-04-01T11:35:47;0.80;;;0.30;;
1026;SDS011;502;48.746;9.214;2023-04-01T11:38:29;0.70;;;0.20;;
1026;SDS011;502;48.746;9.214;2023-04-01T11:41:36;0.90;;;0.20;;
1026;SDS011;502;48.746;9.214;2023-04-01T11:44:24;0.70;;;0.20;;
1026;SDS011;502;48.746;9.214;2023-04-01T11:47:03;0.70;;;0.20;;
1026;SDS011;502;48.746;9.214;2023-04-01T11:49:52;1.47;;;0.30;;
1026;SDS011;502;48.746;9.214;2023-04-01T11:55:40;0.80;;;0.30;;
1026;SDS011;502;48.746;9.214;2023-04-01T11:58:26;0.70;;;0.20;;
1026;SDS011;502;48.746;9.214;2023-04-01T12:01:24;0.70;;;0.20;;
1026;SDS011;502;48.746;9.214;2023-04-01T12:07:08;1.00;;;0.20;;
1026;SDS011;502;48.746;9.214;2023-04-01T12:09:46;0.90;;;0.20;;
1026;SDS011;502;48.746;9.214;2023-04-01T12:12:20;0.80;;;0.20;;
1026;SDS011;502;48.746;9.214;2023-04-01T12:14:54;0.70;;;0.23;;
1026;SDS011;502;48.746;9.214;2023-04-01T12:17:28;0.80;;;0.20;;
1026;SDS011;502;48.746;9.214;2023-04-01T12:20:02;0.70;;;0.20;;
1026;SDS011;502;48.746;9.214;2023-04-01T12:22:46;0.70;;;0.20;;
1026;SDS011;502;48.746;9.214;2023-04-01T12:25:27;2.20;;;0.50;;
1026;SDS011;502;48.746;9.214;2023-04-01T12:28:21;0.70;;;0.20;;
1026;SDS011;502;48.746;9.214;2023-04-01T12:31:01;0.90;;;0.40;;
1026;SDS011;502;48.746;9.214;2023-04-01T12:36:43;0.80;;;0.30;;
1026;SDS011;502;48.746;9.214;2023-04-01T12:39:26;1.37;;;0.20;;
1026;SDS011;502;48.746;9.214;2023-04-01T12:42:02;0.80;;;0.33;;
1026;SDS011;502;48.746;9.214;2023-04-01T12:44:35;0.87;;;0.40;;
1026;SDS011;502;48.746;9.214;2023-04-01T12:50:24;0.70;;;0.30;;
1026;SDS011;502;48.746;9.214;2023-04-01T12:52:58;0.80;;;0.30;;
1026;SDS011;502;48.746;9.214;2023-04-01T12:55:37;1.20;;;0.20;;
1026;SDS011;502;48.746;9.214;2023-04-01T12:58:14;0.90;;;0.30;;
1026;SDS011;502;48.746;9.214;2023-04-01T13:00:54;0.80;;;0.30;;
1026;SDS011;502;48.746;9.214;2023-04-01T13:06:19;0.97;;;0.30;;
1026;SDS011;502;48.746;9.214;2023-04-01T13:08:52;0.70;;;0.20;;
1026;SDS011;502;48.746;9.214;2023-04-01T13:11:27;1.00;;;0.20;;
1026;SDS011;502;48.746;9.214;2023-04-01T13:16:54;0.80;;;0.30;;
1026;SDS011;502;48.746;9.214;2023-04-01T13:19:25;0.67;;;0.20;;
1026;SDS011;502;48.746;9.214;2023-04-01T13:21:59;0.70;;;0.20;;
1026;SDS011;502;48.746;9.214;2023-04-01T13:24:35;0.70;;;0.20;;
1026;SDS011;502;48.746;9.214;2023-04-01T13:27:08;1.97;;;0.23;;
1026;SDS011;502;48.746;9.214;2023-04-01T13:29:39;0.80;;;0.30;;
1026;SDS011;502;48.746;9.214;2023-04-01T13:32:14;0.77;;;0.23;;
1026;SDS011;502;48.746;9.214;2023-04-01T13:34:53;0.70;;;0.30;;
1026;SDS011;502;48.746;9.214;2023-04-01T13:37:45;0.80;;;0.20;;
1026;SDS011;502;48.746;9.214;2023-04-01T13:40:36;0.70;;;0.20;;
1026;SDS011;502;48.746;9.214;2023-04-01T13:43:11;0.77;;;0.30;;
1026;SDS011;502;48.746;9.214;2023-04-01T13:45:47;0.80;;;0.30;;
1026;SDS011;502;48.746;9.214;2023-04-01T13:54:52;0.77;;;0.20;;
1026;SDS011;502;48.746;9.214;2023-04-01T13:57:34;0.83;;;0.30;;
1026;SDS011;502;48.746;9.214;2023-04-01T14:00:25;1.00;;;0.30;;
1026;SDS011;502;48.746;9.214;2023-04-01T14:09:08;0.60;;;0.20;;
1026;SDS011;502;48.746;9.214;2023-04-01T14:11:44;0.70;;;0.20;;
1026;SDS011;502;48.746;9.214;2023-04-01T14:14:17;0.70;;;0.20;;
1026;SDS011;502;48.746;9.214;2023-04-01T14:16:58;0.70;;;0.30;;
1026;SDS011;502;48.746;9.214;2023-04-01T14:19:33;0.80;;;0.30;;
1026;SDS011;502;48.746;9.214;2023-04-01T14:22:19;0.70;;;0.20;;
1026;SDS011;502;48.746;9.214;2023-04-01T14:24:56;0.90;;;0.47;;
1026;SDS011;502;48.746;9.214;2023-04-01T14:27:31;0.70;;;0.20;;
1026;SDS011;502;48.746;9.214;2023-04-01T14:30:15;0.77;;;0.30;;
1026;SDS011;502;48.746;9.214;2023-04-01T14:33:04;0.70;;;0.30;;
1026;SDS011;502;48.746;9.214;2023-04-01T14:35:38;0.80;;;0.30;;
1026;SDS011;502;48.746;9.214;2023-04-01T14:38:17;0.70;;;0.23;;
1026;SDS011;502;48.746;9.214;2023-04-01T14:40:55;0.90;;;0.30;;
1026;SDS011;502;48.746;9.214;2023-04-01T14:46:38;1.57;;;0.40;;
1026;SDS011;502;48.746;9.214;2023-04-01T14:49:21;0.80;;;0.30;;
1026;SDS011;502;48.746;9.214;2023-04-01T14:51:49;1.80;;;0.60;;
1026;SDS011;502;48.746;9.214;2023-04-01T14:54:19;0.70;;;0.20;;
1026;SDS011;502;48.746;9.214;2023-04-01T14:56:50;0.70;;;0.30;;
1026;SDS011;502;48.746;9.214;2023-04-01T14:59:25;0.77;;;0.30;;
1026;SDS011;502;48.746;9.214;2023-04-01T15:01:56;0.70;;;0.23;;
1026;SDS011;502;48.746;9.214;2023-04-01T15:04:44;0.70;;;0.27;;
1026;SDS011;502;48.746;9.214;2023-04-01T15:07:21;0.70;;;0.20;;
1026;SDS011;502;48.746;9.214;2023-04-01T15:10:05;0.80;;;0.30;;
1026;SDS011;502;48.746;9.214;2023-04-01T15:12:49;0.70;;;0.20;;
1026;SDS011;502;48.746;9.214;2023-04-01T15:15:23;0.60;;;0.20;;
1026;SDS011;502;48.746;9.214;2023-04-01T15:18:03;0.77;;;0.23;;
1026;SDS011;502;48.746;9.214;2023-04-01T15:23:26;1.53;;;0.30;;
1026;SDS011;502;48.746;9.214;2023-04-01T15:26:11;0.70;;;0.20;;
1026;SDS011;502;48.746;9.214;2023-04-01T15:28:43;0.93;;;0.30;;
1026;SDS011;502;48.746;9.214;2023-04-01T15:31:16;0.80;;;0.30;;
1026;SDS011;502;48.746;9.214;2023-04-01T15:33:48;1.60;;;0.40;;
1026;SDS011;502;48.746;9.214;2023-04-01T15:36:23;0.70;;;0.20;;
1026;SDS011;502;48.746;9.214;2023-04-01T15:38:58;0.77;;;0.30;;
1026;SDS011;502;48.746;9.214;2023-04-01T15:41:34;0.70;;;0.30;;
1026;SDS011;502;48.746;9.214;2023-04-01T15:44:04;0.90;;;0.40;;
1026;SDS011;502;48.746;9.214;2023-04-01T15:47:12;0.90;;;0.30;;
1026;SDS011;502;48.746;9.214;2023-04-01T15:50:01;0.73;;;0.30;;
1026;SDS011;502;48.746;9.214;2023-04-01T15:52:49;1.10;;;0.47;;
1026;SDS011;502;48.746;9.214;2023-04-01T15:55:20;1.63;;;0.30;;
1026;SDS011;502;48.746;9.214;2023-04-01T15:57:56;0.80;;;0.33;;
1026;SDS011;502;48.746;9.214;2023-04-01T16:00:32;1.00;;;0.40;;
1026;SDS011;502;48.746;9.214;2023-04-01T16:03:19;1.50;;;0.40;;
1026;SDS011;502;48.746;9.214;2023-04-01T16:09:02;1.10;;;0.50;;
1026;SDS011;502;48.746;9.214;2023-04-01T16:11:39;0.70;;;0.30;;
1026;SDS011;502;48.746;9.214;2023-04-01T16:14:14;0.80;;;0.30;;
1026;SDS011;502;48.746;9.214;2023-04-01T16:16:53;1.30;;;0.43;;
1026;SDS011;502;48.746;9.214;2023-04-01T16:22:13;1.00;;;0.40;;
1026;SDS011;502;48.746;9.214;2023-04-01T16:24:45;1.13;;;0.40;;
1026;SDS011;502;48.746;9.214;2023-04-01T16:27:16;0.73;;;0.40;;
1026;SDS011;502;48.746;9.214;2023-04-01T16:29:46;1.10;;;0.50;;
1026;SDS011;502;48.746;9.214;2023-04-01T16:32:23;1.10;;;0.37;;
1026;SDS011;502;48.746;9.214;2023-04-01T16:35:03;0.80;;;0.40;;
1026;SDS011;502;48.746;9.214;2023-04-01T16:37:43;1.40;;;0.40;;
1026;SDS011;502;48.746;9.214;2023-04-01T16:40:13;1.27;;;0.50;;
1026;SDS011;502;48.746;9.214;2023-04-01T16:42:48;1.53;;;0.60;;
1026;SDS011;502;48.746;9.214;2023-04-01T16:45:20;0.93;;;0.50;;
1026;SDS011;502;48.746;9.214;2023-04-01T16:47:54;6.53;;;0.60;;
1026;SDS011;502;48.746;9.214;2023-04-01T16:50:23;1.80;;;0.63;;
1026;SDS011;502;48.746;9.214;2023-04-01T16:52:54;1.03;;;0.50;;
1026;SDS011;502;48.746;9.214;2023-04-01T16:55:33;1.20;;;0.50;;
1026;SDS011;502;48.746;9.214;2023-04-01T16:58:01;1.53;;;0.60;;
1026;SDS011;502;48.746;9.214;2023-04-01T17:00:28;2.03;;;0.60;;
1026;SDS011;502;48.746;9.214;2023-04-01T17:03:11;1.53;;;0.97;;
1026;SDS011;502;48.746;9.214;2023-04-01T17:05:49;1.40;;;1.10;;
1026;SDS011;502;48.746;9.214;2023-04-01T17:08:28;1.43;;;0.70;;
1026;SDS011;502;48.746;9.214;2023-04-01T17:11:03;1.70;;;0.77;;
1026;SDS011;502;48.746;9.214;2023-04-01T17:13:35;1.83;;;0.80;;
1026;SDS011;502;48.746;9.214;2023-04-01T17:16:12;0.80;;;0.50;;
1026;SDS011;502;48.746;9.214;2023-04-01T17:18:58;1.27;;;0.63;;
1026;SDS011;502;48.746;9.214;2023-04-01T17:21:36;1.40;;;0.50;;
1026;SDS011;502;48.746;9.214;2023-04-01T17:24:14;1.90;;;0.70;;
1026;SDS011;502;48.746;9.214;2023-04-01T17:26:52;1.00;;;0.70;;
1026;SDS011;502;48.746;9.214;2023-04-01T17:29:23;2.60;;;0.80;;
1026;SDS011;502;48.746;9.214;2023-04-01T17:32:09;0.90;;;0.50;;
1026;SDS011;502;48.746;9.214;2023-04-01T17:34:42;1.10;;;0.57;;
1026;SDS011;502;48.746;9.214;2023-04-01T17:37:18;1.50;;;0.80;;
1026;SDS011;502;48.746;9.214;2023-04-01T17:39:56;1.33;;;0.80;;
1026;SDS011;502;48.746;9.214;2023-04-01T17:42:31;2.00;;;0.70;;
1026;SDS011;502;48.746;9.214;2023-04-01T17:45:03;1.00;;;0.47;;
1026;SDS011;502;48.746;9.214;2023-04-01T17:47:43;2.10;;;0.70;;
1026;SDS011;502;48.746;9.214;2023-04-01T17:50:20;1.67;;;0.77;;
1026;SDS011;502;48.746;9.214;2023-04-01T17:52:52;1.37;;;0.60;;
1026;SDS011;502;48.746;9.214;2023-04-01T17:55:28;1.50;;;0.70;;
1026;SDS011;502;48.746;9.214;2023-04-01T17:58:06;1.63;;;1.00;;
1026;SDS011;502;48.746;9.214;2023-04-01T18:00:36;1.20;;;0.60;;
1026;SDS011;502;48.746;9.214;2023-04-01T18:03:11;1.67;;;0.70;;
1026;SDS011;502;48.746;9.214;2023-04-01T18:05:51;3.37;;;1.00;;